createdAt,value
2019-04-16T00:02:22.841Z,16.48
2019-04-16T00:04:56.995Z,16.37
2019-04-16T00:07:33.031Z,17.05
2019-04-16T00:10:09.112Z,16.27
2019-04-16T00:12:59.511Z,16.77
2019-04-16T00:15:31.074Z,16.93
2019-04-16T00:18:24.539Z,17.35
2019-04-16T00:21:01.042Z,18.67
2019-04-16T00:23:52.459Z,19.75
2019-04-16T00:26:26.501Z,18.90
2019-04-16T00:28:55.346Z,19.23
2019-04-16T00:31:26.166Z,19.32
2019-04-16T00:33:57.179Z,19.80
2019-04-16T00:36:28.015Z,21.90
2019-04-16T00:39:00.099Z,19.57
2019-04-16T00:41:30.863Z,22.02
2019-04-16T00:44:02.535Z,24.52
2019-04-16T00:46:34.041Z,22.15
2019-04-16T00:49:05.000Z,20.52
2019-04-16T00:51:36.507Z,18.65
2019-04-16T00:54:10.629Z,17.62
2019-04-16T00:57:00.863Z,17.87
2019-04-16T00:59:31.970Z,17.27
2019-04-16T01:02:02.960Z,19.10
2019-04-16T01:04:33.618Z,16.97
2019-04-16T01:07:04.747Z,16.55
2019-04-16T01:09:38.779Z,15.93
2019-04-16T01:12:10.020Z,17.35
2019-04-16T01:14:40.897Z,15.72
2019-04-16T01:17:11.742Z,15.25
2019-04-16T01:19:46.925Z,16.35
2019-04-16T01:22:19.092Z,17.05
2019-04-16T01:24:52.619Z,17.07
2019-04-16T01:27:28.519Z,16.82
2019-04-16T01:30:05.158Z,16.25
2019-04-16T01:32:58.834Z,16.05
2019-04-16T01:35:41.589Z,16.42
2019-04-16T01:38:28.660Z,15.13
2019-04-16T01:41:07.478Z,15.38
2019-04-16T01:43:43.231Z,15.05
2019-04-16T01:48:47.743Z,15.72
2019-04-16T01:51:19.104Z,15.03
2019-04-16T01:54:03.224Z,15.18
2019-04-16T01:56:36.447Z,16.12
2019-04-16T01:59:09.268Z,15.58
2019-04-16T02:01:49.796Z,15.13
2019-04-16T02:04:23.086Z,14.55
2019-04-16T02:06:54.374Z,15.15
2019-04-16T02:09:34.135Z,14.98
2019-04-16T02:14:32.465Z,14.80
2019-04-16T02:17:03.339Z,14.90
2019-04-16T02:19:36.287Z,14.35
2019-04-16T02:22:07.242Z,14.28
2019-04-16T02:24:39.595Z,15.23
2019-04-16T02:27:11.253Z,13.75
2019-04-16T02:29:45.619Z,14.85
2019-04-16T02:32:17.109Z,13.55
2019-04-16T02:34:49.879Z,14.35
2019-04-16T02:37:25.753Z,15.28
2019-04-16T02:39:58.767Z,15.43
2019-04-16T02:42:32.084Z,16.10
2019-04-16T02:45:04.847Z,16.77
2019-04-16T02:47:39.880Z,16.73
2019-04-16T02:50:10.921Z,15.75
2019-04-16T02:52:52.561Z,15.75
2019-04-16T02:55:34.217Z,16.90
2019-04-16T02:58:22.652Z,15.45
2019-04-16T03:00:58.037Z,15.53
2019-04-16T03:03:42.588Z,16.85
2019-04-16T03:06:15.030Z,16.80
2019-04-16T03:08:52.889Z,16.20
2019-04-16T03:11:24.443Z,16.65
2019-04-16T03:13:58.223Z,16.37
2019-04-16T03:17:02.344Z,17.48
2019-04-16T03:19:34.814Z,15.80
2019-04-16T03:22:07.966Z,15.38
2019-04-16T03:24:40.218Z,15.00
2019-04-16T03:27:15.242Z,14.80
2019-04-16T03:32:51.580Z,13.75
2019-04-16T03:35:26.398Z,14.00
2019-04-16T03:38:04.373Z,13.87
2019-04-16T03:40:34.439Z,14.40
2019-04-16T03:43:05.850Z,13.35
2019-04-16T03:45:37.577Z,12.70
2019-04-16T03:48:09.774Z,13.03
2019-04-16T03:50:42.042Z,13.38
2019-04-16T03:53:16.456Z,12.98
2019-04-16T03:55:46.429Z,13.13
2019-04-16T03:58:20.961Z,13.70
2019-04-16T04:00:52.545Z,12.90
2019-04-16T04:03:26.074Z,12.55
2019-04-16T04:05:57.087Z,12.80
2019-04-16T04:08:28.439Z,13.20
2019-04-16T04:11:02.493Z,13.13
2019-04-16T04:13:34.446Z,13.08
2019-04-16T04:16:33.420Z,14.18
2019-04-16T04:19:16.012Z,13.65
2019-04-16T04:21:57.078Z,13.18
2019-04-16T04:24:32.453Z,12.03
2019-04-16T04:27:04.822Z,13.50
2019-04-16T04:29:39.726Z,14.70
2019-04-16T04:32:12.460Z,14.15
2019-04-16T04:34:45.406Z,13.25
2019-04-16T04:37:23.456Z,12.60
2019-04-16T04:39:55.922Z,13.18
2019-04-16T04:42:33.231Z,11.60
2019-04-16T04:45:08.353Z,12.88
2019-04-16T04:47:44.575Z,11.90
2019-04-16T04:50:13.423Z,12.37
2019-04-16T04:52:50.210Z,12.07
2019-04-16T04:55:31.155Z,12.50
2019-04-16T04:58:03.556Z,12.47
2019-04-16T05:00:40.254Z,12.15
2019-04-16T05:03:15.624Z,11.97
2019-04-16T05:11:37.512Z,12.47
2019-04-16T05:14:11.599Z,12.55
2019-04-16T05:16:44.127Z,11.50
2019-04-16T05:19:21.962Z,11.75
2019-04-16T05:21:55.230Z,11.73
2019-04-16T05:24:37.550Z,12.37
2019-04-16T05:27:11.046Z,11.48
2019-04-16T05:29:42.923Z,11.63
2019-04-16T05:32:15.571Z,10.75
2019-04-16T05:34:50.231Z,11.68
2019-04-16T05:37:23.616Z,11.50
2019-04-16T05:40:00.154Z,10.72
2019-04-16T05:45:26.800Z,11.18
2019-04-16T05:48:02.936Z,10.88
2019-04-16T05:50:38.564Z,10.78
2019-04-16T05:53:13.662Z,11.22
2019-04-16T05:56:13.175Z,10.60
2019-04-16T05:59:04.462Z,9.93
2019-04-16T06:01:42.406Z,9.65
2019-04-16T06:04:14.435Z,10.40
2019-04-16T06:06:53.516Z,10.35
2019-04-16T06:09:45.308Z,10.00
2019-04-16T06:12:20.542Z,10.15
2019-04-16T06:15:10.803Z,11.28
2019-04-16T06:17:46.219Z,10.25
2019-04-16T06:20:27.655Z,11.78
2019-04-16T06:23:06.504Z,10.35
2019-04-16T06:25:42.783Z,10.35
2019-04-16T06:28:16.995Z,10.72
2019-04-16T06:33:51.668Z,8.33
2019-04-16T06:36:42.256Z,9.48
2019-04-16T06:39:19.112Z,8.68
2019-04-16T06:41:55.227Z,9.03
2019-04-16T06:44:30.836Z,8.30
2019-04-16T06:47:14.209Z,9.15
2019-04-16T06:49:53.747Z,8.58
2019-04-16T06:52:42.907Z,8.68
2019-04-16T06:55:42.786Z,9.53
2019-04-16T06:58:18.020Z,8.70
2019-04-16T07:01:22.946Z,8.08
2019-04-16T07:03:59.651Z,7.30
2019-04-16T07:06:36.290Z,8.55
2019-04-16T07:09:26.178Z,6.40
2019-04-16T07:12:07.447Z,6.50
2019-04-16T07:14:39.750Z,6.22
2019-04-16T07:17:18.725Z,6.95
2019-04-16T07:19:56.495Z,8.90
2019-04-16T07:22:27.676Z,8.80
2019-04-16T07:25:15.616Z,9.03
2019-04-16T07:27:52.649Z,7.85
2019-04-16T07:30:30.098Z,11.03
2019-04-16T07:33:15.127Z,9.00
2019-04-16T07:35:51.072Z,8.40
2019-04-16T07:38:43.286Z,7.33
2019-04-16T07:41:21.821Z,7.55
2019-04-16T07:44:09.672Z,8.83
2019-04-16T07:46:38.753Z,7.90
2019-04-16T07:49:15.376Z,9.18
2019-04-16T07:52:07.008Z,9.30
2019-04-16T07:54:51.197Z,8.45
2019-04-16T07:57:23.591Z,10.75
2019-04-16T07:59:54.443Z,8.88
2019-04-16T08:02:25.002Z,9.68
2019-04-16T08:04:57.087Z,10.60
2019-04-16T08:07:28.078Z,10.00
2019-04-16T08:10:02.060Z,10.53
2019-04-16T08:12:33.368Z,12.13
2019-04-16T08:15:13.938Z,11.57
2019-04-16T08:17:41.286Z,11.48
2019-04-16T08:20:13.886Z,10.08
2019-04-16T08:22:47.310Z,10.13
2019-04-16T08:25:18.240Z,9.53
2019-04-16T08:27:50.770Z,10.58
2019-04-16T08:30:21.089Z,9.60
2019-04-16T08:32:51.934Z,10.23
2019-04-16T08:35:22.608Z,8.95
2019-04-16T08:37:53.315Z,9.55
2019-04-16T08:40:24.093Z,8.73
2019-04-16T08:42:57.281Z,7.90
2019-04-16T08:45:27.150Z,7.92
2019-04-16T08:47:57.703Z,7.53
2019-04-16T08:50:28.091Z,8.65
2019-04-16T08:52:58.557Z,8.98
2019-04-16T08:55:29.225Z,7.28
2019-04-16T08:57:59.619Z,7.80
2019-04-16T09:00:38.455Z,9.18
2019-04-16T09:03:09.107Z,8.90
2019-04-16T09:08:21.600Z,9.83
2019-04-16T09:10:49.175Z,7.75
2019-04-16T09:13:24.547Z,9.95
2019-04-16T09:15:55.483Z,8.10
2019-04-16T09:18:33.192Z,7.80
2019-04-16T09:21:07.160Z,8.25
2019-04-16T09:23:36.518Z,7.47
2019-04-16T09:26:14.163Z,7.72
2019-04-16T09:29:01.030Z,7.95
2019-04-16T09:31:37.803Z,8.43
2019-04-16T09:34:09.905Z,8.25
2019-04-16T09:47:15.642Z,8.38
2019-04-16T09:55:53.555Z,8.63
2019-04-16T09:58:30.524Z,7.97
2019-04-16T10:04:24.125Z,9.00
2019-04-16T10:09:51.402Z,7.50
2019-04-16T10:12:26.872Z,8.38
2019-04-16T10:14:57.751Z,8.88
2019-04-16T10:17:29.695Z,9.05
2019-04-16T10:20:00.611Z,8.10
2019-04-16T10:22:31.881Z,7.70
2019-04-16T10:25:12.993Z,8.00
2019-04-16T10:27:51.098Z,7.65
2019-04-16T10:30:26.106Z,11.12
2019-04-16T10:32:56.926Z,8.90
2019-04-16T10:35:27.610Z,10.20
2019-04-16T10:38:00.108Z,10.75
2019-04-16T10:40:35.702Z,12.63
2019-04-16T10:45:54.245Z,56.42
2019-04-16T10:48:42.933Z,48.63
2019-04-16T10:51:15.678Z,55.25
2019-04-16T10:53:51.537Z,78.83
2019-04-16T10:56:29.398Z,105.70
2019-04-16T10:59:08.103Z,71.72
2019-04-16T11:01:46.829Z,44.20
2019-04-16T11:04:35.428Z,53.78
2019-04-16T11:07:17.072Z,50.28
2019-04-16T11:09:48.084Z,37.38
2019-04-16T11:12:19.874Z,47.27
2019-04-16T11:14:50.685Z,40.63
2019-04-16T11:17:23.057Z,44.63
2019-04-16T11:19:55.076Z,41.13
2019-04-16T11:22:26.056Z,36.42
2019-04-16T11:24:57.232Z,27.20
2019-04-16T11:27:27.945Z,26.37
2019-04-16T11:30:03.999Z,30.70
2019-04-16T11:35:25.309Z,15.28
2019-04-16T11:37:56.389Z,20.17
2019-04-16T11:40:27.333Z,15.20
2019-04-16T11:42:58.488Z,23.32
2019-04-16T11:45:29.243Z,23.07
2019-04-16T11:48:01.258Z,22.07
2019-04-16T11:50:35.810Z,18.20
2019-04-16T11:53:08.320Z,18.92
2019-04-16T11:55:41.013Z,19.45
2019-04-16T11:58:22.794Z,17.73
2019-04-16T12:01:04.872Z,21.05
2019-04-16T12:03:56.292Z,19.30
2019-04-16T12:06:32.448Z,17.55
2019-04-16T12:09:04.586Z,16.45
2019-04-16T12:11:43.208Z,14.58
2019-04-16T12:14:34.665Z,14.35
2019-04-16T12:17:17.543Z,13.00
2019-04-16T12:19:49.829Z,13.98
2019-04-16T12:22:35.819Z,16.52
2019-04-16T12:28:15.177Z,14.85
2019-04-16T12:30:59.555Z,16.37
2019-04-16T12:33:32.031Z,16.15
2019-04-16T12:36:20.779Z,20.68
2019-04-16T12:39:09.823Z,18.15
2019-04-16T12:41:48.371Z,15.58
2019-04-16T12:44:44.384Z,13.58
2019-04-16T12:49:54.943Z,13.62
2019-04-16T12:52:43.452Z,12.58
2019-04-16T12:55:23.816Z,10.93
2019-04-16T12:57:58.849Z,11.00
2019-04-16T13:00:36.179Z,11.73
2019-04-16T13:03:08.235Z,11.63
2019-04-16T13:06:01.502Z,12.05
2019-04-16T13:08:37.066Z,13.08
2019-04-16T13:11:21.681Z,12.58
2019-04-16T13:14:10.831Z,18.15
2019-04-16T13:17:01.681Z,17.98
2019-04-16T13:19:33.330Z,14.58
2019-04-16T13:22:05.789Z,15.05
2019-04-16T13:24:40.933Z,12.37
2019-04-16T13:27:13.542Z,15.43
2019-04-16T13:29:47.432Z,13.58
2019-04-16T13:32:18.083Z,15.63
2019-04-16T13:34:49.194Z,13.35
2019-04-16T13:37:36.476Z,12.65
2019-04-16T13:39:53.813Z,12.93
2019-04-16T13:42:27.568Z,12.95
2019-04-16T13:45:22.036Z,14.95
2019-04-16T13:47:55.987Z,14.47
2019-04-16T13:50:35.359Z,12.40
2019-04-16T13:53:06.617Z,13.40
2019-04-16T13:55:41.684Z,16.33
2019-04-16T13:58:29.063Z,13.60
2019-04-16T14:01:10.300Z,14.05
2019-04-16T14:03:39.757Z,13.60
2019-04-16T14:06:11.210Z,13.32
2019-04-16T14:08:43.769Z,12.98
2019-04-16T14:11:16.473Z,14.50
2019-04-16T14:13:50.090Z,13.25
2019-04-16T14:16:19.583Z,12.95
2019-04-16T14:19:09.459Z,13.60
2019-04-16T14:21:40.329Z,14.63
2019-04-16T14:24:12.537Z,14.10
2019-04-16T14:26:43.824Z,15.98
2019-04-16T14:29:14.759Z,13.88
2019-04-16T14:31:48.459Z,13.93
2019-04-16T14:34:22.898Z,13.10
2019-04-16T14:36:57.054Z,13.43
2019-04-16T14:39:29.063Z,12.37
2019-04-16T14:42:00.558Z,12.65
2019-04-16T14:44:34.585Z,13.13
2019-04-16T14:47:05.483Z,12.95
2019-04-16T14:49:36.217Z,13.43
2019-04-16T14:52:07.344Z,13.35
2019-04-16T14:54:45.793Z,14.50
2019-04-16T14:57:17.712Z,13.03
2019-04-16T14:59:50.727Z,13.32
2019-04-16T15:02:38.329Z,12.65
2019-04-16T15:05:15.568Z,12.15
2019-04-16T15:08:00.645Z,12.58
2019-04-16T15:10:45.624Z,12.18
2019-04-16T15:13:36.971Z,12.43
2019-04-16T15:19:18.025Z,12.18
2019-04-16T15:24:47.582Z,12.70
2019-04-16T15:27:19.707Z,12.33
2019-04-16T15:29:52.631Z,12.73
2019-04-16T15:32:25.776Z,11.73
2019-04-16T15:34:58.051Z,12.37
2019-04-16T15:37:30.240Z,12.05
2019-04-16T15:40:07.239Z,12.40
2019-04-16T15:42:54.891Z,12.07
2019-04-16T15:45:31.226Z,11.97
2019-04-16T15:48:14.863Z,12.50
2019-04-16T15:50:54.867Z,11.78
2019-04-16T15:53:32.627Z,11.88
2019-04-16T15:56:07.956Z,11.75
2019-04-16T15:58:43.403Z,11.88
2019-04-16T16:01:21.510Z,11.95
2019-04-16T16:04:06.055Z,12.23
2019-04-16T16:06:38.536Z,11.80
2019-04-16T16:09:10.992Z,11.95
2019-04-16T16:11:44.553Z,12.55
2019-04-16T16:14:15.641Z,12.68
2019-04-16T16:16:47.833Z,11.95
2019-04-16T16:19:18.810Z,12.80
2019-04-16T16:21:49.601Z,12.53
2019-04-16T16:24:20.582Z,13.20
2019-04-16T16:26:51.357Z,12.15
2019-04-16T16:29:21.923Z,12.95
2019-04-16T16:31:56.183Z,13.43
2019-04-16T16:34:27.706Z,11.95
2019-04-16T16:36:58.717Z,12.15
2019-04-16T16:39:29.166Z,11.50
2019-04-16T16:41:59.866Z,12.78
2019-04-16T16:44:30.609Z,12.28
2019-04-16T16:47:17.793Z,11.15
2019-04-16T16:49:48.826Z,11.88
2019-04-16T16:52:37.124Z,12.20
2019-04-16T16:55:10.104Z,11.28
2019-04-16T16:57:45.405Z,12.23
2019-04-16T17:00:34.800Z,11.73
2019-04-16T17:03:09.746Z,11.93
2019-04-16T17:05:40.519Z,11.55
2019-04-16T17:08:11.235Z,12.00
2019-04-16T17:10:42.502Z,12.82
2019-04-16T17:13:15.722Z,11.30
2019-04-16T17:15:45.725Z,11.33
2019-04-16T17:18:16.706Z,10.95
2019-04-16T17:20:50.069Z,11.33
2019-04-16T17:23:19.666Z,11.50
2019-04-16T17:25:50.339Z,11.20
2019-04-16T17:28:20.927Z,11.00
2019-04-16T17:30:51.747Z,11.12
2019-04-16T17:33:22.418Z,12.90
2019-04-16T17:35:53.546Z,11.40
2019-04-16T17:38:24.515Z,11.15
2019-04-16T17:40:59.583Z,11.43
2019-04-16T17:43:30.168Z,12.03
2019-04-16T17:46:05.342Z,11.18
2019-04-16T17:48:43.910Z,13.40
2019-04-16T17:51:25.178Z,12.63
2019-04-16T17:54:12.662Z,12.03
2019-04-16T17:56:47.906Z,11.05
2019-04-16T17:59:23.450Z,12.85
2019-04-16T18:02:07.995Z,11.30
2019-04-16T18:04:46.341Z,11.75
2019-04-16T18:07:21.327Z,12.28
2019-04-16T18:10:00.411Z,12.10
2019-04-16T18:12:42.453Z,11.90
2019-04-16T18:15:14.833Z,12.03
2019-04-16T18:18:01.601Z,11.73
2019-04-16T18:23:07.331Z,12.23
2019-04-16T18:25:55.655Z,12.33
2019-04-16T18:28:25.351Z,12.75
2019-04-16T18:31:03.958Z,12.37
2019-04-16T18:33:42.132Z,12.82
2019-04-16T18:36:33.533Z,11.55
2019-04-16T18:39:21.953Z,12.40
2019-04-16T18:41:56.769Z,12.10
2019-04-16T18:44:46.990Z,11.75
2019-04-16T18:47:21.812Z,11.78
2019-04-16T18:49:54.764Z,12.23
2019-04-16T18:52:25.728Z,11.80
2019-04-16T18:54:56.456Z,11.45
2019-04-16T18:57:27.294Z,12.10
2019-04-16T18:59:58.180Z,12.55
2019-04-16T19:02:30.312Z,13.85
2019-04-16T19:05:01.549Z,12.78
2019-04-16T19:07:32.311Z,11.33
2019-04-16T19:10:03.040Z,12.98
2019-04-16T19:12:33.924Z,12.43
2019-04-16T19:15:04.682Z,13.10
2019-04-16T19:17:35.420Z,11.83
2019-04-16T19:20:06.891Z,12.13
2019-04-16T19:22:37.591Z,12.30
2019-04-16T19:25:08.980Z,12.05
2019-04-16T19:27:42.015Z,11.80
2019-04-16T19:30:12.846Z,12.70
2019-04-16T19:32:43.506Z,11.97
2019-04-16T19:35:17.172Z,12.73
2019-04-16T19:37:46.985Z,14.45
2019-04-16T19:40:19.547Z,12.25
2019-04-16T19:42:50.402Z,12.25
2019-04-16T19:45:21.056Z,11.60
2019-04-16T19:47:51.815Z,12.75
2019-04-16T19:50:22.366Z,12.13
2019-04-16T19:52:53.119Z,12.13
2019-04-16T19:55:24.020Z,12.03
2019-04-16T19:57:57.487Z,12.35
2019-04-16T20:00:26.854Z,10.88
2019-04-16T20:02:57.739Z,12.15
2019-04-16T20:05:28.881Z,12.20
2019-04-16T20:08:01.371Z,11.88
2019-04-16T20:10:32.271Z,11.45
2019-04-16T20:13:03.157Z,11.20
2019-04-16T20:15:33.943Z,11.65
2019-04-16T20:18:06.526Z,11.95
2019-04-16T20:20:36.738Z,13.22
2019-04-16T20:23:07.554Z,12.65
2019-04-16T20:25:38.207Z,12.30
2019-04-16T20:28:09.636Z,12.07
2019-04-16T20:30:41.319Z,11.93
2019-04-16T20:33:12.011Z,12.80
2019-04-16T20:35:42.934Z,11.60
2019-04-16T20:38:16.979Z,11.83
2019-04-16T20:40:46.396Z,12.28
2019-04-16T20:43:17.118Z,13.78
2019-04-16T20:45:48.435Z,12.35
2019-04-16T20:48:19.154Z,12.58
2019-04-16T20:50:52.805Z,12.23
2019-04-16T20:53:22.610Z,13.13
2019-04-16T20:55:55.774Z,12.93
2019-04-16T20:58:31.252Z,13.05
2019-04-16T21:01:01.625Z,13.43
2019-04-16T21:03:32.413Z,12.90
2019-04-16T21:06:07.466Z,12.53
2019-04-16T21:08:35.484Z,12.65
2019-04-16T21:11:08.817Z,13.05
2019-04-16T21:13:39.737Z,12.58
2019-04-16T21:16:10.425Z,12.98
2019-04-16T21:18:41.131Z,12.65
2019-04-16T21:21:11.914Z,11.88
2019-04-16T21:23:42.615Z,12.13
2019-04-16T21:26:13.310Z,12.65
2019-04-16T21:28:45.699Z,12.58
2019-04-16T21:31:17.741Z,13.05
2019-04-16T21:33:52.229Z,12.88
2019-04-16T21:36:28.999Z,12.20
2019-04-16T21:39:10.929Z,12.85
2019-04-16T21:41:41.582Z,13.38
2019-04-16T21:44:13.213Z,13.45
2019-04-16T21:46:44.305Z,13.43
2019-04-16T21:49:14.959Z,13.30
2019-04-16T21:52:03.631Z,13.60
2019-04-16T21:54:34.347Z,13.45
2019-04-16T21:57:05.019Z,15.70
2019-04-16T21:59:35.914Z,13.35
2019-04-16T22:02:14.149Z,14.15
2019-04-16T22:04:45.444Z,13.88
2019-04-16T22:07:16.859Z,13.35
2019-04-16T22:09:47.590Z,13.50
2019-04-16T22:12:18.775Z,13.65
2019-04-16T22:14:51.026Z,13.30
2019-04-16T22:17:22.014Z,13.00
2019-04-16T22:19:58.023Z,13.20
2019-04-16T22:22:27.582Z,13.40
2019-04-16T22:24:57.113Z,12.80
2019-04-16T22:27:27.889Z,13.78
2019-04-16T22:29:59.003Z,13.15
2019-04-16T22:32:30.941Z,13.90
2019-04-16T22:35:02.317Z,13.32
2019-04-16T22:37:33.189Z,13.43
2019-04-16T22:40:22.852Z,13.40
2019-04-16T22:43:06.964Z,12.65
2019-04-16T22:45:47.497Z,13.98
2019-04-16T22:48:18.338Z,13.32
2019-04-16T22:50:49.001Z,13.10
2019-04-16T22:53:19.741Z,14.68
2019-04-16T22:56:03.830Z,13.75
2019-04-16T22:58:53.886Z,14.37
2019-04-16T23:01:26.931Z,13.13
2019-04-16T23:04:00.553Z,13.78
2019-04-16T23:06:37.994Z,13.78
2019-04-16T23:09:08.923Z,13.68
2019-04-16T23:11:39.901Z,13.58
2019-04-16T23:14:11.027Z,13.53
2019-04-16T23:16:42.774Z,13.40
2019-04-16T23:19:13.933Z,15.38
2019-04-16T23:21:44.651Z,14.50
2019-04-16T23:24:23.390Z,16.45
2019-04-16T23:26:54.723Z,14.58
2019-04-16T23:29:25.899Z,14.73
2019-04-16T23:31:57.797Z,14.18
2019-04-16T23:34:28.517Z,15.03
2019-04-16T23:37:00.212Z,15.38
2019-04-16T23:39:33.574Z,14.75
2019-04-16T23:42:03.251Z,14.45
2019-04-16T23:44:46.629Z,14.20
2019-04-16T23:47:28.284Z,14.85
2019-04-16T23:50:03.420Z,15.25
2019-04-16T23:52:35.827Z,15.10
2019-04-16T23:55:20.424Z,15.18
2019-04-16T23:57:56.843Z,15.08
